Time;durP1;ratioP1;P1;durP2;ratioP2;P2;SDS_P1;SDS_P2;PMS_P1;PMS_P2;Temp;Humidity;BMP_temperature;BMP_pressure;BME280_temperature;BME280_humidity;BME280_pressure;Samples;Min_cycle;Max_cycle;Signal;HPM_P1;HPM_P2
2021/11/07 00:01:13;;;;;;;7.73;2.00;;;;;;;;;;5117955;28;20523;-80
2021/11/07 00:03:44;;;;;;;9.10;2.27;;;;;;;;;;5118239;28;20476;-79
2021/11/07 00:06:15;;;;;;;9.37;2.60;;;;;;;;;;5117866;28;20992;-81
2021/11/07 00:08:49;;;;;;;8.13;2.57;;;;;;;;;;5117948;28;20510;-80
2021/11/07 00:11:27;;;;;;;10.40;2.20;;;;;;;;;;5117306;28;20474;-79
2021/11/07 00:13:56;;;;;;;8.13;2.90;;;;;;;;;;5118937;28;20466;-81
2021/11/07 00:16:26;;;;;;;10.30;2.90;;;;;;;;;;5117934;28;20542;-79
2021/11/07 00:21:43;;;;;;;9.10;3.43;;;;;;;;;;5114287;28;20473;-79
2021/11/07 00:24:12;;;;;;;8.43;2.80;;;;;;;;;;5116169;28;20863;-79
2021/11/07 00:26:49;;;;;;;9.33;3.10;;;;;;;;;;5116161;28;20449;-79
2021/11/07 00:29:21;;;;;;;13.10;4.37;;;;;;;;;;5117610;28;20536;-80
2021/11/07 00:31:53;;;;;;;9.70;3.10;;;;;;;;;;5115732;28;20473;-79
2021/11/07 00:34:42;;;;;;;12.80;4.00;;;;;;;;;;5116415;28;20837;-78
2021/11/07 00:37:10;;;;;;;11.03;3.40;;;;;;;;;;5116571;28;20511;-79
2021/11/07 00:39:43;;;;;;;10.50;4.30;;;;;;;;;;5117259;28;20876;-79
2021/11/07 00:42:15;;;;;;;9.27;3.73;;;;;;;;;;5115717;28;20479;-79
2021/11/07 00:44:50;;;;;;;11.27;4.50;;;;;;;;;;5112990;28;20477;-79
2021/11/07 00:47:33;;;;;;;9.30;3.70;;;;;;;;;;5115757;28;20450;-79
2021/11/07 00:50:04;;;;;;;11.63;4.30;;;;;;;;;;5110052;28;20475;-78
2021/11/07 00:52:35;;;;;;;14.67;4.30;;;;;;;;;;5111672;28;20817;-78
2021/11/07 00:55:07;;;;;;;10.50;3.83;;;;;;;;;;5107209;28;20453;-79
2021/11/07 00:57:43;;;;;;;13.00;4.40;;;;;;;;;;5112301;28;20500;-78
2021/11/07 01:00:20;;;;;;;11.53;4.97;;;;;;;;;;5115496;28;20502;-80
2021/11/07 01:02:52;;;;;;;14.27;4.67;;;;;;;;;;5115387;28;20481;-79
2021/11/07 01:05:22;;;;;;;9.33;4.00;;;;;;;;;;5114546;28;20454;-79
2021/11/07 01:07:49;;;;;;;12.10;4.57;;;;;;;;;;5114422;28;20536;-78
2021/11/07 01:10:16;;;;;;;10.30;4.67;;;;;;;;;;5114769;28;20456;-81
2021/11/07 01:12:43;;;;;;;11.00;4.40;;;;;;;;;;5114430;28;20556;-78
2021/11/07 01:15:12;;;;;;;50.37;8.57;;;;;;;;;;5114454;28;20449;-78
2021/11/07 01:17:40;;;;;;;12.50;4.90;;;;;;;;;;5115846;28;21005;-79
2021/11/07 01:20:08;;;;;;;12.63;5.23;;;;;;;;;;5114095;28;20471;-77
2021/11/07 01:22:43;;;;;;;13.20;5.83;;;;;;;;;;5116132;28;20437;-79
2021/11/07 01:25:11;;;;;;;11.07;4.97;;;;;;;;;;5113767;28;20453;-79
2021/11/07 01:27:40;;;;;;;13.20;5.27;;;;;;;;;;5115951;28;20498;-79
2021/11/07 01:30:14;;;;;;;14.67;6.60;;;;;;;;;;5094508;28;20521;-77
2021/11/07 01:32:46;;;;;;;15.87;5.83;;;;;;;;;;5110476;28;20460;-78
2021/11/07 01:35:17;;;;;;;14.50;5.90;;;;;;;;;;5114876;28;20487;-80
2021/11/07 01:37:54;;;;;;;18.60;5.87;;;;;;;;;;5114928;28;21063;-77
2021/11/07 01:40:24;;;;;;;13.43;5.90;;;;;;;;;;5114019;28;20457;-79
2021/11/07 01:42:55;;;;;;;11.87;5.57;;;;;;;;;;5114587;28;20458;-80
2021/11/07 01:45:25;;;;;;;14.00;5.70;;;;;;;;;;5115373;28;21004;-79
2021/11/07 01:47:56;;;;;;;14.07;6.27;;;;;;;;;;5115287;28;20445;-79
2021/11/07 01:50:23;;;;;;;13.97;7.00;;;;;;;;;;5114897;28;20454;-79
2021/11/07 01:52:55;;;;;;;14.00;6.40;;;;;;;;;;5114572;28;20477;-79
2021/11/07 01:55:22;;;;;;;20.33;8.40;;;;;;;;;;5114747;28;20453;-79
2021/11/07 01:57:49;;;;;;;11.10;5.60;;;;;;;;;;5114404;28;20483;-78
2021/11/07 02:00:19;;;;;;;15.43;6.80;;;;;;;;;;5114176;28;20453;-78
2021/11/07 02:02:46;;;;;;;12.00;5.87;;;;;;;;;;5114814;28;20441;-80
2021/11/07 02:05:14;;;;;;;12.00;6.20;;;;;;;;;;5114569;28;20975;-80
2021/11/07 02:07:42;;;;;;;11.90;5.60;;;;;;;;;;5115129;28;20451;-78
2021/11/07 02:10:11;;;;;;;12.97;5.70;;;;;;;;;;5114035;28;20453;-80
2021/11/07 02:12:40;;;;;;;16.50;6.03;;;;;;;;;;5109847;28;20540;-80
2021/11/07 02:15:08;;;;;;;19.03;7.37;;;;;;;;;;5114506;28;20540;-78
2021/11/07 02:17:35;;;;;;;11.80;6.10;;;;;;;;;;5117379;28;20567;-78
2021/11/07 02:20:05;;;;;;;13.63;6.80;;;;;;;;;;5118285;28;20460;-78
2021/11/07 02:22:34;;;;;;;14.10;4.60;;;;;;;;;;5117946;28;20457;-79
2021/11/07 02:25:01;;;;;;;13.13;6.27;;;;;;;;;;5118759;28;20825;-78
2021/11/07 02:27:28;;;;;;;12.00;5.63;;;;;;;;;;5118960;28;20438;-78
2021/11/07 02:29:56;;;;;;;11.93;6.60;;;;;;;;;;5118303;28;20453;-79
2021/11/07 02:32:25;;;;;;;15.57;6.30;;;;;;;;;;5117926;28;20886;-79
2021/11/07 02:34:53;;;;;;;11.63;6.40;;;;;;;;;;5119211;28;20454;-79
2021/11/07 02:37:20;;;;;;;14.40;5.97;;;;;;;;;;5118494;28;20480;-77
2021/11/07 02:39:49;;;;;;;13.00;6.60;;;;;;;;;;5117075;28;20977;-81
2021/11/07 02:42:16;;;;;;;14.20;7.03;;;;;;;;;;5116877;28;20473;-78
2021/11/07 02:44:44;;;;;;;12.93;6.27;;;;;;;;;;5117736;28;20445;-78
2021/11/07 02:47:13;;;;;;;12.80;7.10;;;;;;;;;;5117705;28;20861;-78
2021/11/07 02:49:41;;;;;;;14.50;8.00;;;;;;;;;;5118101;28;20507;-80
2021/11/07 02:52:09;;;;;;;12.77;6.10;;;;;;;;;;5117138;28;20486;-77
2021/11/07 02:54:36;;;;;;;13.13;5.90;;;;;;;;;;5117591;28;20983;-78
2021/11/07 02:57:06;;;;;;;12.30;6.23;;;;;;;;;;5117946;28;20479;-79
2021/11/07 02:59:35;;;;;;;11.00;6.20;;;;;;;;;;5118335;28;20447;-79
2021/11/07 03:02:03;;;;;;;13.07;6.23;;;;;;;;;;5116920;28;20477;-76
2021/11/07 03:04:31;;;;;;;10.87;4.93;;;;;;;;;;5114710;28;20541;-79
2021/11/07 03:06:58;;;;;;;11.03;5.20;;;;;;;;;;5117650;28;20845;-81
2021/11/07 03:09:27;;;;;;;11.30;5.40;;;;;;;;;;5117205;28;20450;-78
2021/11/07 03:11:55;;;;;;;13.23;6.73;;;;;;;;;;5116210;28;20472;-78
2021/11/07 03:14:25;;;;;;;13.63;5.50;;;;;;;;;;5117038;28;20460;-79
2021/11/07 03:16:52;;;;;;;13.10;5.10;;;;;;;;;;5117223;28;20481;-77
2021/11/07 03:19:20;;;;;;;12.10;6.03;;;;;;;;;;5119160;28;20441;-80
2021/11/07 03:21:48;;;;;;;12.37;6.10;;;;;;;;;;5117367;28;20473;-81
2021/11/07 03:24:17;;;;;;;12.63;6.73;;;;;;;;;;5119361;28;20448;-80
2021/11/07 03:26:44;;;;;;;11.80;6.40;;;;;;;;;;5118563;28;20453;-79
2021/11/07 03:29:12;;;;;;;14.00;6.73;;;;;;;;;;5118196;28;20452;-80
2021/11/07 03:31:48;;;;;;;15.70;6.13;;;;;;;;;;5116759;28;20549;-78
2021/11/07 03:34:19;;;;;;;13.37;6.03;;;;;;;;;;5118481;28;20454;-80
2021/11/07 03:36:49;;;;;;;11.57;5.40;;;;;;;;;;5118874;28;20453;-79
2021/11/07 03:39:16;;;;;;;11.40;5.77;;;;;;;;;;5116569;28;20460;-78
2021/11/07 03:41:44;;;;;;;12.10;6.50;;;;;;;;;;5101484;28;20471;-79
2021/11/07 03:44:12;;;;;;;12.60;6.20;;;;;;;;;;5115931;28;21215;-78
2021/11/07 03:46:41;;;;;;;11.70;6.07;;;;;;;;;;5116246;28;20450;-78
2021/11/07 03:49:09;;;;;;;12.80;6.80;;;;;;;;;;5115828;28;20825;-79
2021/11/07 03:51:36;;;;;;;11.53;5.70;;;;;;;;;;5114643;28;20475;-79
2021/11/07 03:54:04;;;;;;;12.30;6.33;;;;;;;;;;5115536;28;20499;-78
2021/11/07 03:56:31;;;;;;;14.30;6.10;;;;;;;;;;5116005;28;20441;-79
2021/11/07 03:58:59;;;;;;;11.07;5.50;;;;;;;;;;5116412;28;21028;-80
2021/11/07 04:01:26;;;;;;;12.27;6.80;;;;;;;;;;5114832;28;20476;-77
2021/11/07 04:03:55;;;;;;;11.70;6.53;;;;;;;;;;5116562;28;20451;-79
2021/11/07 04:06:22;;;;;;;13.20;6.30;;;;;;;;;;5115966;28;20511;-79
2021/11/07 04:08:49;;;;;;;12.60;6.30;;;;;;;;;;5115859;28;20465;-79
2021/11/07 04:11:16;;;;;;;11.73;6.73;;;;;;;;;;5115009;28;20473;-77
2021/11/07 04:13:44;;;;;;;16.43;7.10;;;;;;;;;;5115635;28;20442;-78
2021/11/07 04:16:12;;;;;;;12.77;6.63;;;;;;;;;;5115633;28;20981;-78
2021/11/07 04:18:40;;;;;;;12.10;7.93;;;;;;;;;;5114703;28;20482;-78
2021/11/07 04:21:08;;;;;;;13.40;8.60;;;;;;;;;;5114031;28;20485;-80
2021/11/07 04:23:36;;;;;;;11.83;6.80;;;;;;;;;;5114845;28;20493;-78
2021/11/07 04:26:03;;;;;;;12.70;6.70;;;;;;;;;;5114539;28;20963;-79
2021/11/07 04:28:31;;;;;;;13.30;6.30;;;;;;;;;;5114810;28;20454;-78
2021/11/07 04:30:58;;;;;;;12.00;7.07;;;;;;;;;;5113029;28;20481;-78
2021/11/07 04:33:25;;;;;;;10.60;5.97;;;;;;;;;;5114109;28;20458;-77
2021/11/07 04:35:53;;;;;;;15.00;8.00;;;;;;;;;;5114151;28;20840;-78
2021/11/07 04:38:21;;;;;;;13.60;6.83;;;;;;;;;;5114112;28;20485;-77
2021/11/07 04:40:48;;;;;;;11.80;7.73;;;;;;;;;;5110135;28;20470;-79
2021/11/07 04:43:17;;;;;;;11.60;7.27;;;;;;;;;;5114424;28;20458;-78
2021/11/07 04:45:44;;;;;;;12.27;7.47;;;;;;;;;;5113917;28;20500;-77
2021/11/07 04:48:11;;;;;;;11.10;6.80;;;;;;;;;;5113569;28;20454;-78
2021/11/07 04:50:38;;;;;;;14.23;7.23;;;;;;;;;;5113054;28;20477;-77
2021/11/07 04:53:06;;;;;;;13.23;8.00;;;;;;;;;;5114143;28;20451;-77
2021/11/07 04:55:36;;;;;;;13.30;7.17;;;;;;;;;;5113717;28;20451;-77
2021/11/07 04:58:03;;;;;;;17.70;9.43;;;;;;;;;;5113606;28;20485;-79
2021/11/07 05:00:32;;;;;;;13.13;9.00;;;;;;;;;;5113170;28;20849;-78
2021/11/07 05:03:00;;;;;;;12.20;7.60;;;;;;;;;;5113143;28;20551;-78
2021/11/07 05:05:27;;;;;;;13.17;8.10;;;;;;;;;;5113685;28;20488;-79
2021/11/07 05:07:56;;;;;;;12.93;7.40;;;;;;;;;;5111571;28;20449;-79
2021/11/07 05:10:23;;;;;;;17.03;8.87;;;;;;;;;;5113486;28;20560;-80
2021/11/07 05:12:51;;;;;;;16.27;9.40;;;;;;;;;;5112667;28;20457;-78
2021/11/07 05:15:18;;;;;;;16.43;9.00;;;;;;;;;;5096044;28;20448;-81
2021/11/07 05:17:45;;;;;;;14.63;9.60;;;;;;;;;;5094215;28;20857;-79
2021/11/07 05:20:13;;;;;;;14.37;9.13;;;;;;;;;;5112957;28;20455;-79
2021/11/07 05:22:40;;;;;;;15.93;9.40;;;;;;;;;;5113517;28;20500;-80
2021/11/07 05:25:08;;;;;;;16.67;9.30;;;;;;;;;;5112872;28;20453;-81
2021/11/07 05:27:36;;;;;;;19.00;11.40;;;;;;;;;;5117792;28;20492;-81
2021/11/07 05:30:06;;;;;;;16.33;9.23;;;;;;;;;;5118096;28;20454;-80
2021/11/07 05:32:33;;;;;;;18.10;11.27;;;;;;;;;;5119463;28;20450;-80
2021/11/07 05:35:00;;;;;;;19.63;11.67;;;;;;;;;;5121377;22;20509;-87
2021/11/07 05:37:27;;;;;;;15.13;10.67;;;;;;;;;;5099727;28;20818;-87
2021/11/07 05:39:54;;;;;;;18.87;11.23;;;;;;;;;;5098900;28;20962;-86
2021/11/07 05:42:22;;;;;;;20.27;13.33;;;;;;;;;;5098533;28;20447;-86
2021/11/07 05:44:50;;;;;;;19.77;10.20;;;;;;;;;;5096318;28;20476;-86
2021/11/07 05:47:18;;;;;;;18.40;10.80;;;;;;;;;;5079352;28;20462;-86
2021/11/07 05:49:45;;;;;;;14.53;9.50;;;;;;;;;;5078583;28;20453;-87
2021/11/07 05:52:12;;;;;;;15.10;9.23;;;;;;;;;;5080001;28;20473;-85
2021/11/07 05:54:40;;;;;;;14.80;9.43;;;;;;;;;;5079759;28;20479;-85
2021/11/07 05:57:07;;;;;;;15.27;8.67;;;;;;;;;;5083450;28;20454;-87
2021/11/07 05:59:34;;;;;;;16.23;9.93;;;;;;;;;;5078828;28;20490;-87
2021/11/07 06:02:01;;;;;;;18.67;9.90;;;;;;;;;;5076662;28;20457;-81
2021/11/07 06:04:29;;;;;;;17.60;9.20;;;;;;;;;;5076624;28;20473;-83
2021/11/07 06:06:57;;;;;;;17.20;10.93;;;;;;;;;;5075866;28;20462;-81
2021/11/07 06:09:24;;;;;;;16.20;10.27;;;;;;;;;;5074224;28;20459;-83
2021/11/07 06:11:51;;;;;;;15.63;9.70;;;;;;;;;;5074641;28;20451;-81
2021/11/07 06:14:18;;;;;;;19.33;9.00;;;;;;;;;;5072618;28;20466;-81
2021/11/07 06:16:46;;;;;;;18.50;10.40;;;;;;;;;;5075379;28;20454;-82
2021/11/07 06:19:13;;;;;;;17.47;10.13;;;;;;;;;;5075291;28;20480;-81
2021/11/07 06:21:42;;;;;;;15.70;9.50;;;;;;;;;;5075391;28;20460;-81
2021/11/07 06:24:12;;;;;;;14.43;9.70;;;;;;;;;;5074110;28;20459;-82
2021/11/07 06:26:39;;;;;;;18.50;11.20;;;;;;;;;;5074064;28;21061;-82
2021/11/07 06:29:06;;;;;;;14.60;9.30;;;;;;;;;;5073931;28;20896;-83
2021/11/07 06:31:33;;;;;;;15.87;10.67;;;;;;;;;;5074125;28;20448;-82
2021/11/07 06:34:01;;;;;;;23.20;13.00;;;;;;;;;;5074471;28;20535;-83
2021/11/07 06:36:28;;;;;;;24.60;14.10;;;;;;;;;;5076362;28;20867;-81
2021/11/07 06:38:57;;;;;;;20.10;14.10;;;;;;;;;;5074658;28;20512;-82
2021/11/07 06:41:25;;;;;;;21.90;14.87;;;;;;;;;;5071694;28;20499;-81
2021/11/07 06:43:54;;;;;;;22.73;15.40;;;;;;;;;;5066209;28;20479;-81
2021/11/07 06:46:22;;;;;;;22.67;14.60;;;;;;;;;;5073129;28;20559;-81
2021/11/07 06:48:49;;;;;;;24.17;16.03;;;;;;;;;;5073659;28;20849;-81
2021/11/07 06:51:17;;;;;;;24.70;17.53;;;;;;;;;;5073540;28;20456;-81
2021/11/07 06:53:44;;;;;;;20.50;14.57;;;;;;;;;;5073964;28;20453;-81
2021/11/07 06:56:12;;;;;;;21.73;15.47;;;;;;;;;;5073761;28;21016;-81
2021/11/07 06:58:41;;;;;;;17.70;13.03;;;;;;;;;;5074256;28;20480;-81
2021/11/07 07:01:08;;;;;;;17.73;12.70;;;;;;;;;;5072990;28;20452;-82
2021/11/07 07:03:37;;;;;;;21.07;12.50;;;;;;;;;;5063911;28;20978;-81
2021/11/07 07:06:04;;;;;;;16.50;10.80;;;;;;;;;;5068031;28;20919;-81
2021/11/07 07:08:42;;;;;;;20.17;12.17;;;;;;;;;;5064655;28;20435;-82
2021/11/07 07:11:11;;;;;;;16.47;11.10;;;;;;;;;;5070220;28;20868;-80
2021/11/07 07:13:45;;;;;;;16.80;12.00;;;;;;;;;;5068978;28;20447;-81
2021/11/07 07:16:23;;;;;;;20.80;10.70;;;;;;;;;;5069758;28;20475;-81
2021/11/07 07:19:00;;;;;;;17.00;10.17;;;;;;;;;;5066082;28;20514;-81
2021/11/07 07:21:36;;;;;;;21.43;11.20;;;;;;;;;;5069969;28;20486;-82
2021/11/07 07:35:26;;;;;;;20.50;9.57;;;;;;;;;;5108915;27;20463;-80
2021/11/07 07:37:53;;;;;;;14.00;7.57;;;;;;;;;;5126841;28;20946;-81
2021/11/07 07:40:20;;;;;;;13.50;7.47;;;;;;;;;;5125359;27;20438;-78
2021/11/07 07:42:47;;;;;;;15.70;9.17;;;;;;;;;;5129512;27;20524;-81
2021/11/07 07:45:25;;;;;;;14.90;8.00;;;;;;;;;;5123606;27;20470;-79
2021/11/07 07:47:53;;;;;;;18.00;9.27;;;;;;;;;;5118583;27;21026;-79
2021/11/07 07:50:22;;;;;;;17.10;7.87;;;;;;;;;;5126024;27;21038;-80
2021/11/07 07:52:50;;;;;;;16.00;8.17;;;;;;;;;;5126519;27;20450;-80
2021/11/07 07:55:17;;;;;;;18.37;8.87;;;;;;;;;;5127102;27;20478;-82
2021/11/07 07:57:46;;;;;;;15.27;8.20;;;;;;;;;;5131530;27;21218;-80
2021/11/07 08:00:17;;;;;;;18.13;8.40;;;;;;;;;;5126724;27;20958;-79
2021/11/07 08:02:46;;;;;;;17.57;8.40;;;;;;;;;;5126208;27;20522;-80
2021/11/07 08:05:14;;;;;;;24.20;8.57;;;;;;;;;;5123033;27;20474;-80
2021/11/07 08:07:42;;;;;;;14.50;8.50;;;;;;;;;;5122783;27;20526;-80
2021/11/07 08:10:10;;;;;;;15.03;7.80;;;;;;;;;;5123544;28;21000;-77
2021/11/07 08:12:39;;;;;;;18.40;9.20;;;;;;;;;;5130642;27;20466;-79
2021/11/07 08:15:06;;;;;;;16.80;9.80;;;;;;;;;;5131567;27;20472;-81
2021/11/07 08:17:33;;;;;;;19.10;9.97;;;;;;;;;;5131251;27;20443;-80
2021/11/07 08:20:04;;;;;;;20.77;12.67;;;;;;;;;;5129078;27;20519;-82
2021/11/07 08:22:31;;;;;;;19.10;11.83;;;;;;;;;;5125401;28;20455;-80
2021/11/07 08:24:59;;;;;;;23.73;12.60;;;;;;;;;;5131626;27;20535;-81
2021/11/07 08:27:26;;;;;;;25.17;13.00;;;;;;;;;;5134049;27;20450;-80
2021/11/07 08:29:56;;;;;;;24.57;13.90;;;;;;;;;;5132538;27;20566;-81
2021/11/07 08:32:23;;;;;;;25.50;14.10;;;;;;;;;;5138574;27;20825;-80
2021/11/07 08:34:51;;;;;;;26.23;15.10;;;;;;;;;;5152164;27;20847;-80
2021/11/07 08:37:28;;;;;;;22.40;12.87;;;;;;;;;;5138648;27;20946;-79
2021/11/07 08:39:58;;;;;;;24.97;14.60;;;;;;;;;;5123343;27;20479;-82
2021/11/07 08:42:31;;;;;;;23.90;13.63;;;;;;;;;;5109679;27;20886;-80
2021/11/07 09:01:40;;;;;;;23.03;12.07;;;;;;;;;;5114785;28;20870;-80
2021/11/07 09:04:21;;;;;;;22.63;12.23;;;;;;;;;;5115750;28;20844;-80
2021/11/07 09:07:00;;;;;;;20.50;12.50;;;;;;;;;;5116361;28;20500;-80
2021/11/07 09:09:32;;;;;;;32.40;13.97;;;;;;;;;;5115552;28;20574;-80
2021/11/07 09:12:00;;;;;;;22.13;12.70;;;;;;;;;;5115137;28;20447;-79
2021/11/07 09:14:30;;;;;;;20.67;11.03;;;;;;;;;;5114618;27;20487;-81
2021/11/07 09:16:57;;;;;;;17.93;10.47;;;;;;;;;;5107272;28;20456;-79
2021/11/07 09:19:27;;;;;;;18.13;9.37;;;;;;;;;;5109087;28;20437;-80
2021/11/07 09:21:58;;;;;;;20.33;10.30;;;;;;;;;;5113787;28;20902;-80
2021/11/07 09:24:31;;;;;;;23.43;9.43;;;;;;;;;;5107030;28;20484;-80
2021/11/07 09:27:05;;;;;;;24.93;7.10;;;;;;;;;;5114176;28;20453;-79
2021/11/07 09:29:44;;;;;;;19.70;5.83;;;;;;;;;;5111089;28;20505;-81
2021/11/07 09:32:20;;;;;;;12.60;4.83;;;;;;;;;;5111412;28;20465;-79
2021/11/07 09:34:52;;;;;;;17.23;5.33;;;;;;;;;;5114044;28;20471;-81
2021/11/07 09:37:27;;;;;;;19.83;4.80;;;;;;;;;;5116481;28;20463;-79
2021/11/07 09:39:57;;;;;;;17.63;4.40;;;;;;;;;;5116646;28;20448;-80
2021/11/07 09:45:19;;;;;;;22.10;4.53;;;;;;;;;;5109975;28;20857;-80
2021/11/07 09:47:51;;;;;;;15.13;3.83;;;;;;;;;;5115855;28;20445;-80
2021/11/07 09:50:18;;;;;;;18.37;4.30;;;;;;;;;;5116080;28;20425;-81
2021/11/07 09:52:48;;;;;;;19.90;3.47;;;;;;;;;;5114935;28;20561;-80
2021/11/07 09:55:16;;;;;;;18.30;5.30;;;;;;;;;;5113900;27;20526;-81
2021/11/07 09:57:49;;;;;;;13.27;3.17;;;;;;;;;;5116006;28;20452;-80
2021/11/07 10:00:20;;;;;;;19.30;4.33;;;;;;;;;;5115749;28;20444;-78
2021/11/07 10:02:48;;;;;;;18.13;3.30;;;;;;;;;;5116005;28;20477;-81
2021/11/07 10:05:19;;;;;;;20.53;4.50;;;;;;;;;;5109001;28;20461;-80
2021/11/07 10:07:46;;;;;;;22.40;4.07;;;;;;;;;;5104288;28;20442;-81
2021/11/07 10:10:18;;;;;;;15.47;3.43;;;;;;;;;;5115335;28;20995;-81
2021/11/07 10:12:50;;;;;;;18.97;4.30;;;;;;;;;;5103588;28;20886;-80
2021/11/07 10:15:23;;;;;;;17.20;3.43;;;;;;;;;;5095534;28;20480;-81
2021/11/07 10:17:52;;;;;;;43.87;18.40;;;;;;;;;;5095940;28;20457;-81
2021/11/07 10:20:23;;;;;;;22.10;4.60;;;;;;;;;;5094752;28;20510;-81
2021/11/07 10:22:55;;;;;;;15.37;3.40;;;;;;;;;;5095418;28;20513;-81
2021/11/07 10:25:26;;;;;;;26.47;5.50;;;;;;;;;;5111568;28;21055;-81
2021/11/07 10:27:57;;;;;;;16.43;4.33;;;;;;;;;;5115600;28;20464;-81
2021/11/07 10:30:26;;;;;;;23.90;4.47;;;;;;;;;;5114883;28;20486;-80
2021/11/07 10:33:00;;;;;;;18.07;4.20;;;;;;;;;;5115783;28;20894;-81
2021/11/07 10:38:24;;;;;;;16.43;3.80;;;;;;;;;;5115085;28;20424;-83
2021/11/07 10:41:07;;;;;;;25.33;3.60;;;;;;;;;;5114823;28;20869;-81
2021/11/07 10:43:52;;;;;;;16.50;3.10;;;;;;;;;;5110714;28;20966;-82
2021/11/07 10:46:39;;;;;;;17.07;3.13;;;;;;;;;;5113182;28;20465;-80
2021/11/07 10:52:18;;;;;;;10.53;2.87;;;;;;;;;;5011626;28;20481;-82
2021/11/07 10:54:46;;;;;;;17.20;3.57;;;;;;;;;;5093224;28;20469;-81
2021/11/07 10:57:15;;;;;;;18.77;3.30;;;;;;;;;;5114628;28;20556;-83
2021/11/07 10:59:44;;;;;;;14.97;2.80;;;;;;;;;;5105833;28;20479;-80
2021/11/07 11:02:29;;;;;;;15.60;3.47;;;;;;;;;;5105988;28;20448;-79
2021/11/07 11:05:00;;;;;;;14.17;3.00;;;;;;;;;;5111351;28;20549;-78
2021/11/07 11:07:27;;;;;;;16.60;2.97;;;;;;;;;;5100849;28;20799;-82
2021/11/07 11:10:11;;;;;;;16.03;4.67;;;;;;;;;;5101586;28;20488;-80
2021/11/07 11:13:00;;;;;;;14.60;3.90;;;;;;;;;;5105778;28;20949;-80
2021/11/07 11:15:36;;;;;;;10.90;2.97;;;;;;;;;;5107724;28;20485;-80
2021/11/07 11:18:11;;;;;;;14.70;3.80;;;;;;;;;;5106017;28;20555;-80
2021/11/07 11:21:09;;;;;;;13.43;3.10;;;;;;;;;;5112071;28;20440;-81
2021/11/07 11:23:48;;;;;;;10.20;3.20;;;;;;;;;;5110326;28;20836;-81
2021/11/07 11:26:26;;;;;;;13.20;3.20;;;;;;;;;;5113785;28;20469;-78
2021/11/07 11:29:03;;;;;;;15.00;3.33;;;;;;;;;;5108173;28;20555;-80
2021/11/07 11:31:36;;;;;;;13.10;3.23;;;;;;;;;;5104575;28;20498;-84
2021/11/07 11:34:09;;;;;;;15.17;3.20;;;;;;;;;;5105867;28;20933;-82
2021/11/07 11:36:44;;;;;;;13.40;3.50;;;;;;;;;;5113981;28;20477;-82
2021/11/07 11:39:15;;;;;;;11.93;2.90;;;;;;;;;;5113678;28;20535;-80
2021/11/07 11:41:46;;;;;;;12.90;3.07;;;;;;;;;;5102340;28;20453;-81
2021/11/07 11:44:15;;;;;;;11.47;3.13;;;;;;;;;;5094218;28;20507;-82
2021/11/07 11:46:51;;;;;;;11.90;2.80;;;;;;;;;;5094068;28;20476;-81
2021/11/07 11:49:54;;;;;;;22.10;4.57;;;;;;;;;;5094458;28;20492;-81
2021/11/07 11:52:36;;;;;;;13.47;3.40;;;;;;;;;;5093140;28;20463;-81
2021/11/07 11:55:18;;;;;;;16.30;3.87;;;;;;;;;;5100791;28;21216;-81
2021/11/07 11:57:57;;;;;;;11.90;2.60;;;;;;;;;;5106315;28;20444;-81
2021/11/07 12:00:42;;;;;;;10.93;3.10;;;;;;;;;;5114042;28;20551;-80
2021/11/07 12:03:16;;;;;;;19.83;3.40;;;;;;;;;;5113856;28;20486;-80
2021/11/07 12:05:46;;;;;;;12.27;2.90;;;;;;;;;;5114457;28;20547;-82
2021/11/07 12:08:19;;;;;;;11.40;2.93;;;;;;;;;;5114046;28;20455;-81
2021/11/07 12:10:50;;;;;;;11.47;3.10;;;;;;;;;;5114211;28;20488;-81
2021/11/07 12:13:33;;;;;;;22.60;3.80;;;;;;;;;;5114405;28;20440;-78
2021/11/07 12:16:06;;;;;;;12.80;2.97;;;;;;;;;;5113702;28;20475;-82
2021/11/07 12:18:34;;;;;;;12.63;3.20;;;;;;;;;;5112672;28;20477;-79
2021/11/07 12:21:02;;;;;;;12.00;2.77;;;;;;;;;;5110696;28;20455;-83
2021/11/07 12:23:32;;;;;;;13.73;2.73;;;;;;;;;;5098766;28;20457;-79
2021/11/07 12:26:20;;;;;;;14.97;3.73;;;;;;;;;;5096534;28;20866;-81
2021/11/07 12:28:48;;;;;;;14.10;3.80;;;;;;;;;;5096500;28;20471;-81
2021/11/07 12:31:16;;;;;;;10.20;2.77;;;;;;;;;;5095613;28;20551;-80
2021/11/07 12:33:55;;;;;;;14.23;3.50;;;;;;;;;;5097671;28;20478;-81
2021/11/07 12:36:50;;;;;;;18.30;3.47;;;;;;;;;;5097032;28;20530;-81
2021/11/07 12:42:17;;;;;;;18.63;3.00;;;;;;;;;;5096175;28;20932;-81
2021/11/07 12:44:47;;;;;;;11.60;2.70;;;;;;;;;;5096972;28;20980;-81
2021/11/07 12:47:15;;;;;;;17.43;3.50;;;;;;;;;;5097059;28;20507;-80
2021/11/07 12:49:55;;;;;;;11.90;2.63;;;;;;;;;;5110849;28;20476;-80
2021/11/07 12:52:24;;;;;;;14.77;2.93;;;;;;;;;;5116323;28;20962;-81
2021/11/07 12:54:51;;;;;;;12.50;2.30;;;;;;;;;;5116359;28;20468;-82
2021/11/07 12:57:19;;;;;;;12.20;2.73;;;;;;;;;;5116869;28;20453;-82
2021/11/07 12:59:47;;;;;;;16.50;3.23;;;;;;;;;;5116832;28;20462;-82
2021/11/07 13:02:23;;;;;;;10.33;2.53;;;;;;;;;;5114510;28;20444;-82
2021/11/07 13:04:55;;;;;;;13.70;2.97;;;;;;;;;;5117327;28;20467;-81
2021/11/07 13:07:24;;;;;;;13.00;2.60;;;;;;;;;;5110108;28;20538;-81
2021/11/07 13:09:58;;;;;;;11.93;2.73;;;;;;;;;;5102798;28;20492;-82
2021/11/07 13:12:30;;;;;;;9.63;2.47;;;;;;;;;;5111339;28;20499;-83
2021/11/07 13:15:14;;;;;;;11.97;2.80;;;;;;;;;;5111991;28;20518;-81
2021/11/07 13:18:19;;;;;;;13.07;2.93;;;;;;;;;;5106755;28;20452;-82
2021/11/07 13:21:06;;;;;;;12.83;2.23;;;;;;;;;;5095099;28;20491;-81
2021/11/07 13:23:55;;;;;;;16.50;3.17;;;;;;;;;;5111038;28;20454;-81
2021/11/07 13:26:33;;;;;;;16.13;2.93;;;;;;;;;;5105134;28;20556;-80
2021/11/07 13:29:16;;;;;;;13.17;2.90;;;;;;;;;;5116003;28;21044;-82
2021/11/07 13:31:47;;;;;;;12.93;2.40;;;;;;;;;;5099400;28;20454;-83
2021/11/07 13:34:18;;;;;;;11.70;2.40;;;;;;;;;;5103212;28;20526;-82
2021/11/07 13:36:53;;;;;;;16.77;3.60;;;;;;;;;;5120265;28;20448;-80
2021/11/07 13:39:23;;;;;;;17.67;3.00;;;;;;;;;;5117035;28;20954;-83
2021/11/07 13:41:55;;;;;;;17.70;2.97;;;;;;;;;;5123303;28;20483;-81
2021/11/07 13:44:25;;;;;;;15.77;3.07;;;;;;;;;;5117804;28;20459;-81
2021/11/07 13:46:53;;;;;;;9.77;2.40;;;;;;;;;;5103664;28;20479;-81
2021/11/07 13:49:20;;;;;;;10.83;3.00;;;;;;;;;;5113314;28;20438;-82
2021/11/07 13:51:53;;;;;;;15.83;2.83;;;;;;;;;;5111958;28;20449;-81
2021/11/07 13:54:20;;;;;;;17.10;3.30;;;;;;;;;;5108825;28;20436;-81
2021/11/07 13:56:49;;;;;;;11.70;2.50;;;;;;;;;;5108865;28;20516;-82
2021/11/07 13:59:27;;;;;;;15.50;3.13;;;;;;;;;;5114640;28;20461;-81
2021/11/07 14:01:54;;;;;;;11.50;2.70;;;;;;;;;;5105266;27;20457;-82
2021/11/07 14:04:22;;;;;;;14.17;3.20;;;;;;;;;;5116469;28;20910;-82
2021/11/07 14:06:49;;;;;;;16.40;2.80;;;;;;;;;;5121111;28;20532;-81
2021/11/07 14:09:19;;;;;;;12.80;3.20;;;;;;;;;;5113889;28;20520;-82
2021/11/07 14:11:49;;;;;;;12.73;3.30;;;;;;;;;;5110410;28;20442;-80
2021/11/07 14:14:19;;;;;;;12.83;2.80;;;;;;;;;;5113251;28;20472;-82
2021/11/07 14:16:49;;;;;;;13.80;3.13;;;;;;;;;;5110137;28;20476;-79
2021/11/07 14:19:17;;;;;;;16.70;3.30;;;;;;;;;;5121500;28;20452;-78
2021/11/07 14:21:47;;;;;;;10.77;3.10;;;;;;;;;;5109415;28;20463;-80
2021/11/07 14:24:17;;;;;;;13.97;3.57;;;;;;;;;;5105242;28;20497;-80
2021/11/07 14:26:50;;;;;;;14.73;3.73;;;;;;;;;;5122686;28;20487;-81
2021/11/07 14:29:21;;;;;;;15.43;3.70;;;;;;;;;;5117778;28;20464;-79
2021/11/07 14:31:54;;;;;;;14.40;3.33;;;;;;;;;;5114677;28;21036;-81
2021/11/07 14:34:25;;;;;;;18.40;4.10;;;;;;;;;;5115446;28;20458;-80
2021/11/07 14:37:00;;;;;;;14.43;3.20;;;;;;;;;;5111730;28;20456;-81
2021/11/07 14:39:42;;;;;;;16.27;3.73;;;;;;;;;;5109200;28;20444;-81
2021/11/07 14:45:13;;;;;;;11.13;3.00;;;;;;;;;;5113694;28;20550;-81
2021/11/07 14:47:49;;;;;;;7.70;2.80;;;;;;;;;;5119378;28;20453;-80
2021/11/07 14:50:31;;;;;;;12.80;3.43;;;;;;;;;;5127353;28;20462;-80
2021/11/07 14:53:02;;;;;;;12.53;2.43;;;;;;;;;;5127757;28;20467;-82
2021/11/07 14:55:33;;;;;;;16.80;2.13;;;;;;;;;;5110747;28;20474;-81
2021/11/07 14:58:21;;;;;;;14.97;2.80;;;;;;;;;;5120954;28;20435;-81
2021/11/07 15:00:58;;;;;;;11.20;2.83;;;;;;;;;;5107225;28;20436;-81
2021/11/07 15:03:29;;;;;;;14.27;3.13;;;;;;;;;;5112631;28;20528;-80
2021/11/07 15:08:54;;;;;;;11.80;3.00;;;;;;;;;;5101110;28;20520;-81
2021/11/07 15:14:24;;;;;;;11.67;3.27;;;;;;;;;;5116303;28;21222;-80
2021/11/07 15:17:02;;;;;;;14.80;2.97;;;;;;;;;;5103007;28;20456;-82
2021/11/07 15:19:34;;;;;;;11.10;2.83;;;;;;;;;;5106912;28;20477;-80
2021/11/07 15:22:05;;;;;;;10.83;2.93;;;;;;;;;;5121410;28;21855;-81
2021/11/07 15:24:38;;;;;;;13.30;3.27;;;;;;;;;;5120173;28;20449;-80
2021/11/07 15:27:07;;;;;;;15.70;3.40;;;;;;;;;;5116651;28;20512;-81
2021/11/07 15:29:37;;;;;;;15.90;2.93;;;;;;;;;;5113074;28;20454;-82
2021/11/07 15:32:06;;;;;;;10.30;3.07;;;;;;;;;;5114664;28;20459;-82
2021/11/07 15:34:34;;;;;;;19.27;3.30;;;;;;;;;;5115143;28;20458;-82
2021/11/07 15:37:02;;;;;;;13.10;3.20;;;;;;;;;;5114178;28;20452;-82
2021/11/07 15:39:32;;;;;;;12.47;3.20;;;;;;;;;;5114257;28;20947;-81
2021/11/07 15:42:02;;;;;;;13.60;3.97;;;;;;;;;;5113245;28;21010;-82